createdAt,value
2019-03-04T00:01:30.867Z,94782.05
2019-03-04T00:04:01.778Z,94780.03
2019-03-04T00:06:32.413Z,94771.45
2019-03-04T00:09:02.830Z,94774.48
2019-03-04T00:11:34.970Z,94771.34
2019-03-04T00:14:05.330Z,94766.17
2019-03-04T00:16:36.161Z,94765.59
2019-03-04T00:19:06.576Z,94767.16
2019-03-04T00:21:37.931Z,94766.78
2019-03-04T00:24:08.359Z,94764.13
2019-03-04T00:26:39.018Z,94755.20
2019-03-04T00:29:11.483Z,94761.10
2019-03-04T00:31:41.956Z,94753.16
2019-03-04T00:34:12.586Z,94750.33
2019-03-04T00:36:43.968Z,94747.92
2019-03-04T00:39:14.297Z,94751.27
2019-03-04T00:41:44.803Z,94742.81
2019-03-04T00:44:15.524Z,94752.98
2019-03-04T00:46:47.206Z,94754.57
2019-03-04T00:49:17.460Z,94762.32
2019-03-04T00:51:47.837Z,94735.74
2019-03-04T00:54:18.427Z,94751.50
2019-03-04T00:56:48.763Z,94753.22
2019-03-04T00:59:19.154Z,94739.30
2019-03-04T01:01:49.859Z,94740.28
2019-03-04T01:04:20.152Z,94739.83
2019-03-04T01:06:50.726Z,94743.19
2019-03-04T01:09:21.502Z,94743.91
2019-03-04T01:11:52.043Z,94737.80
2019-03-04T01:14:22.692Z,94746.58
2019-03-04T01:16:53.142Z,94734.77
2019-03-04T01:19:23.493Z,94738.17
2019-03-04T01:21:54.195Z,94727.34
2019-03-04T01:24:24.537Z,94724.80
2019-03-04T01:26:54.875Z,94727.77
2019-03-04T01:29:25.530Z,94719.48
2019-03-04T01:31:56.046Z,94727.33
2019-03-04T01:34:26.438Z,94723.53
2019-03-04T01:36:57.120Z,94722.72
2019-03-04T01:39:27.905Z,94716.91
2019-03-04T01:41:58.272Z,94724.80
2019-03-04T01:44:28.852Z,94717.77
2019-03-04T01:46:59.563Z,94724.65
2019-03-04T01:49:29.874Z,94721.63
2019-03-04T01:52:00.250Z,94716.23
2019-03-04T01:54:30.931Z,94719.55
2019-03-04T01:57:01.271Z,94717.39
2019-03-04T01:59:31.588Z,94710.44
2019-03-04T02:02:02.263Z,94716.70
2019-03-04T02:04:32.668Z,94726.94
2019-03-04T02:07:03.015Z,94717.28
2019-03-04T02:09:34.012Z,94723.78
2019-03-04T02:12:04.702Z,94724.33
2019-03-04T02:14:35.034Z,94733.23
2019-03-04T02:17:05.400Z,94724.35
2019-03-04T02:19:35.809Z,94723.83
2019-03-04T02:22:06.183Z,94718.49
2019-03-04T02:24:37.541Z,94727.09
2019-03-04T02:27:07.878Z,94728.65
2019-03-04T02:29:38.601Z,94733.28
2019-03-04T02:32:09.069Z,94734.66
2019-03-04T02:34:39.422Z,94740.84
2019-03-04T02:37:10.462Z,94737.63
2019-03-04T02:39:41.070Z,94745.94
2019-03-04T02:42:11.391Z,94736.83
2019-03-04T02:44:42.149Z,94732.42
2019-03-04T02:47:12.860Z,94736.33
2019-03-04T02:49:43.160Z,94730.19
2019-03-04T02:52:13.530Z,94724.63
2019-03-04T02:54:43.939Z,94719.75
2019-03-04T02:57:14.638Z,94722.33
2019-03-04T02:59:45.371Z,94725.05
2019-03-04T03:02:15.682Z,94718.31
2019-03-04T03:04:46.413Z,94715.67
2019-03-04T03:07:17.174Z,94712.53
2019-03-04T03:09:47.603Z,94713.73
2019-03-04T03:12:18.116Z,94712.83
2019-03-04T03:14:48.814Z,94717.02
2019-03-04T03:17:19.214Z,94711.64
2019-03-04T03:19:49.554Z,94716.63
2019-03-04T03:22:20.118Z,94722.54
2019-03-04T03:24:50.758Z,94725.48
2019-03-04T03:27:21.525Z,94726.70
2019-03-04T03:29:52.213Z,94727.39
2019-03-04T03:32:22.913Z,94727.15
2019-03-04T03:34:54.642Z,94723.70
2019-03-04T03:37:25.131Z,94725.72
2019-03-04T03:39:55.502Z,94722.66
2019-03-04T03:42:26.284Z,94720.81
2019-03-04T03:44:56.631Z,94724.66
2019-03-04T03:47:26.895Z,94718.30
2019-03-04T03:49:57.304Z,94719.10
2019-03-04T03:52:27.711Z,94711.08
2019-03-04T03:54:58.107Z,94715.53
2019-03-04T03:57:28.858Z,94712.05
2019-03-04T03:59:59.616Z,94710.94
2019-03-04T04:02:29.955Z,94714.45
2019-03-04T04:05:00.722Z,94714.38
2019-03-04T04:07:31.379Z,94719.27
2019-03-04T04:10:01.847Z,94714.30
2019-03-04T04:12:33.354Z,94714.80
2019-03-04T04:15:04.367Z,94716.20
2019-03-04T04:17:34.722Z,94717.52
2019-03-04T04:20:06.237Z,94712.77
2019-03-04T04:22:36.720Z,94712.94
2019-03-04T04:25:07.720Z,94713.18
2019-03-04T04:27:38.330Z,94710.50
2019-03-04T04:30:09.398Z,94703.02
2019-03-04T04:32:39.947Z,94702.77
2019-03-04T04:35:11.244Z,94703.48
2019-03-04T04:37:41.604Z,94704.60
2019-03-04T04:40:12.394Z,94700.80
2019-03-04T04:42:42.888Z,94702.52
2019-03-04T04:45:13.409Z,94698.27
2019-03-04T04:47:43.703Z,94694.01
2019-03-04T04:50:14.610Z,94691.78
2019-03-04T04:52:45.075Z,94694.66
2019-03-04T04:55:15.450Z,94692.75
2019-03-04T04:57:46.011Z,94696.89
2019-03-04T05:00:16.704Z,94697.73
2019-03-04T05:02:47.380Z,94699.10
2019-03-04T05:05:17.809Z,94696.12
2019-03-04T05:07:48.120Z,94692.49
2019-03-04T05:10:19.235Z,94697.38
2019-03-04T05:12:49.777Z,94698.45
2019-03-04T05:15:20.050Z,94692.61
2019-03-04T05:17:50.765Z,94704.60
2019-03-04T05:20:22.358Z,94702.12
2019-03-04T05:22:52.713Z,94704.66
2019-03-04T05:25:23.515Z,94702.05
2019-03-04T05:27:54.322Z,94704.39
2019-03-04T05:30:24.863Z,94702.38
2019-03-04T05:32:55.423Z,94707.11
2019-03-04T05:35:25.808Z,94705.80
2019-03-04T05:37:56.442Z,94704.12
2019-03-04T05:40:28.348Z,94704.63
2019-03-04T05:42:58.779Z,94702.01
2019-03-04T05:45:29.628Z,94703.72
2019-03-04T05:48:00.249Z,94700.73
2019-03-04T05:50:31.562Z,94705.45
2019-03-04T05:53:02.232Z,94702.08
2019-03-04T05:55:32.977Z,94709.93
2019-03-04T05:58:03.407Z,94714.94
2019-03-04T06:00:38.498Z,94724.48
2019-03-04T06:03:09.678Z,94724.64
2019-03-04T06:05:40.559Z,94727.78
2019-03-04T06:08:11.275Z,94735.69
2019-03-04T06:10:41.678Z,94734.80
2019-03-04T06:13:12.209Z,94734.15
2019-03-04T06:15:42.661Z,94739.55
2019-03-04T06:18:13.019Z,94739.50
2019-03-04T06:20:43.553Z,94738.70
2019-03-04T06:23:14.543Z,94744.92
2019-03-04T06:25:44.919Z,94743.54
2019-03-04T06:28:15.359Z,94746.47
2019-03-04T06:30:46.167Z,94752.30
2019-03-04T06:33:16.609Z,94741.61
2019-03-04T06:35:47.346Z,94750.17
2019-03-04T06:38:17.636Z,94744.42
2019-03-04T06:40:48.085Z,94748.52
2019-03-04T06:43:18.874Z,94743.86
2019-03-04T06:45:49.265Z,94749.34
2019-03-04T06:48:19.558Z,94747.45
2019-03-04T06:50:54.673Z,94748.09
2019-03-04T06:53:44.388Z,94748.56
2019-03-04T06:56:35.106Z,94753.45
2019-03-04T06:59:13.569Z,94754.07
2019-03-04T07:01:48.159Z,94751.48
2019-03-04T07:04:32.534Z,94752.86
2019-03-04T07:07:03.158Z,94756.73
2019-03-04T07:09:33.504Z,94758.91
2019-03-04T07:12:04.073Z,94762.33
2019-03-04T07:14:34.428Z,94758.57
2019-03-04T07:17:04.751Z,94760.84
2019-03-04T07:19:37.077Z,94755.14
2019-03-04T07:22:07.475Z,94759.48
2019-03-04T07:24:37.789Z,94759.52
2019-03-04T07:27:08.523Z,94753.52
2019-03-04T07:29:39.274Z,94755.83
2019-03-04T07:32:09.925Z,94754.67
2019-03-04T07:34:40.436Z,94747.47
2019-03-04T07:37:11.027Z,94736.03
2019-03-04T07:39:41.388Z,94749.39
2019-03-04T07:42:13.145Z,94742.07
2019-03-04T07:44:43.526Z,94734.92
2019-03-04T07:47:14.252Z,94732.05
2019-03-04T07:49:49.566Z,94735.78
2019-03-04T07:52:19.989Z,94730.73
2019-03-04T07:54:50.688Z,94729.59
2019-03-04T07:57:21.582Z,94732.56
2019-03-04T07:59:52.049Z,94729.46
2019-03-04T08:02:22.666Z,94729.89
2019-03-04T08:04:53.354Z,94729.11
2019-03-04T08:07:45.317Z,94719.93
2019-03-04T08:10:42.519Z,94727.11
2019-03-04T08:13:17.732Z,94726.16
2019-03-04T08:15:50.427Z,94718.08
2019-03-04T08:18:20.772Z,94715.30
2019-03-04T08:20:51.604Z,94708.61
2019-03-04T08:23:22.052Z,94720.41
2019-03-04T08:25:52.383Z,94714.61
2019-03-04T08:28:23.285Z,94713.05
2019-03-04T08:30:53.943Z,94711.39
2019-03-04T08:33:24.276Z,94705.78
2019-03-04T08:35:55.351Z,94700.80
2019-03-04T08:38:26.022Z,94694.66
2019-03-04T08:40:56.368Z,94696.46
2019-03-04T08:43:26.968Z,94686.55
2019-03-04T08:45:58.827Z,94687.39
2019-03-04T08:48:29.265Z,94683.95
2019-03-04T08:51:02.253Z,94682.16
2019-03-04T08:53:32.058Z,94685.92
2019-03-04T08:56:02.656Z,94677.95
2019-03-04T08:58:34.380Z,94683.42
2019-03-04T09:01:04.995Z,94682.20
2019-03-04T09:03:35.622Z,94683.42
2019-03-04T09:06:06.298Z,94679.38
2019-03-04T09:08:36.642Z,94675.50
2019-03-04T09:11:06.974Z,94674.23
2019-03-04T09:13:37.392Z,94671.22
2019-03-04T09:16:07.675Z,94668.42
2019-03-04T09:18:38.632Z,94667.17
2019-03-04T09:21:09.067Z,94659.05
2019-03-04T09:23:39.745Z,94659.55
2019-03-04T09:26:11.715Z,94661.89
2019-03-04T09:28:42.100Z,94652.05
2019-03-04T09:31:13.558Z,94645.70
2019-03-04T09:33:44.513Z,94649.13
2019-03-04T09:36:14.837Z,94641.22
2019-03-04T09:38:45.225Z,94643.45
2019-03-04T09:41:15.794Z,94640.29
2019-03-04T09:43:46.195Z,94629.22
2019-03-04T09:46:16.488Z,94630.80
2019-03-04T09:48:47.186Z,94622.88
2019-03-04T09:51:24.405Z,94628.47
2019-03-04T09:53:50.242Z,94626.95
2019-03-04T09:56:20.657Z,94617.73
2019-03-04T09:58:51.050Z,94612.78
2019-03-04T10:01:28.942Z,94612.16
2019-03-04T10:04:19.122Z,94600.22
2019-03-04T10:07:08.342Z,94590.55
2019-03-04T10:10:11.710Z,94590.86
2019-03-04T10:13:23.562Z,94594.09
2019-03-04T10:16:41.073Z,94588.05
2019-03-04T10:19:36.226Z,94584.14
2019-03-04T10:22:33.484Z,94578.06
2019-03-04T10:25:38.966Z,94585.20
2019-03-04T10:28:44.623Z,94572.88
2019-03-04T10:31:48.709Z,94569.70
2019-03-04T10:34:58.581Z,94566.86
2019-03-04T10:38:11.707Z,94559.50
2019-03-04T10:40:57.743Z,94560.53
2019-03-04T10:44:10.488Z,94544.65
2019-03-04T10:46:52.442Z,94538.98
2019-03-04T10:49:22.847Z,94530.80
2019-03-04T10:51:53.462Z,94529.70
2019-03-04T10:54:24.482Z,94529.47
2019-03-04T10:56:54.777Z,94519.73
2019-03-04T10:59:25.224Z,94518.83
2019-03-04T11:01:55.619Z,94507.77
2019-03-04T11:04:26.344Z,94508.24
2019-03-04T11:06:57.133Z,94508.59
2019-03-04T11:09:27.457Z,94496.30
2019-03-04T11:11:57.909Z,94494.97
2019-03-04T11:14:28.455Z,94483.52
2019-03-04T11:16:58.748Z,94479.83
2019-03-04T11:19:29.153Z,94467.52
2019-03-04T11:21:59.697Z,94465.19
2019-03-04T11:24:30.496Z,94480.39
2019-03-04T11:27:00.801Z,94466.63
2019-03-04T11:29:31.645Z,94463.81
2019-03-04T11:32:02.246Z,94467.36
2019-03-04T11:34:35.095Z,94448.57
2019-03-04T11:37:05.517Z,94448.00
2019-03-04T11:39:54.803Z,94435.91
2019-03-04T11:42:25.565Z,94430.25
2019-03-04T11:44:55.976Z,94420.88
2019-03-04T11:47:27.255Z,94416.27
2019-03-04T11:49:58.848Z,94424.75
2019-03-04T11:52:29.169Z,94429.73
2019-03-04T11:54:59.820Z,94415.20
2019-03-04T11:57:30.488Z,94402.48
2019-03-04T12:00:01.359Z,94400.45
2019-03-04T12:02:38.871Z,94403.28
2019-03-04T12:05:05.330Z,94384.45
2019-03-04T12:07:35.634Z,94385.92
2019-03-04T12:10:08.939Z,94377.27
2019-03-04T12:12:40.584Z,94370.56
2019-03-04T12:15:13.714Z,94380.86
2019-03-04T12:17:44.644Z,94346.30
2019-03-04T12:20:15.833Z,94359.04
2019-03-04T12:22:46.182Z,94355.00
2019-03-04T12:25:16.933Z,94363.67
2019-03-04T12:27:47.901Z,94355.19
2019-03-04T12:30:19.276Z,94361.18
2019-03-04T12:32:50.122Z,94350.63
2019-03-04T12:35:20.819Z,94343.03
2019-03-04T12:37:51.185Z,94353.79
2019-03-04T12:40:21.737Z,94358.19
2019-03-04T12:42:52.612Z,94340.72
2019-03-04T12:45:33.465Z,94334.80
2019-03-04T12:47:55.315Z,94340.38
2019-03-04T12:50:26.334Z,94328.58
2019-03-04T12:52:56.950Z,94332.80
2019-03-04T12:55:27.543Z,94331.19
2019-03-04T12:57:58.071Z,94318.33
2019-03-04T13:00:29.216Z,94302.70
2019-03-04T13:02:59.645Z,94316.70
2019-03-04T13:05:30.330Z,94308.16
2019-03-04T13:08:00.715Z,94307.66
2019-03-04T13:10:31.879Z,94302.84
2019-03-04T13:13:02.303Z,94058.30
2019-03-04T13:15:32.958Z,94291.33
2019-03-04T13:25:22.433Z,94266.85
2019-03-04T13:27:52.710Z,94273.41
2019-03-04T13:30:23.875Z,94272.09
2019-03-04T13:32:54.417Z,94276.23
2019-03-04T13:35:25.165Z,94275.56
2019-03-04T13:37:55.817Z,94268.55
2019-03-04T13:40:26.225Z,94272.70
2019-03-04T13:42:56.515Z,94271.86
2019-03-04T13:45:27.307Z,94250.39
2019-03-04T13:47:57.899Z,94249.86
2019-03-04T13:50:28.199Z,93989.86
2019-03-04T13:52:59.035Z,94247.05
2019-03-04T13:55:29.786Z,94245.52
2019-03-04T13:58:00.278Z,94237.98
2019-03-04T14:00:31.686Z,94240.91
2019-03-04T14:03:02.134Z,94235.75
2019-03-04T14:05:32.422Z,94227.06
2019-03-04T14:08:03.301Z,94224.00
2019-03-04T14:10:34.970Z,94224.00
2019-03-04T14:13:05.673Z,94233.89
2019-03-04T14:15:38.157Z,94229.78
2019-03-04T14:18:08.867Z,94224.41
2019-03-04T14:20:39.234Z,94215.50
2019-03-04T14:23:10.189Z,94217.73
2019-03-04T14:25:40.859Z,94205.09
2019-03-04T14:28:11.436Z,94205.09
2019-03-04T14:30:41.744Z,94207.16
2019-03-04T14:33:12.075Z,94200.16
2019-03-04T14:35:42.727Z,94194.64
2019-03-04T14:38:13.285Z,94190.46
2019-03-04T14:40:43.590Z,94205.25
2019-03-04T14:43:14.410Z,94192.82
2019-03-04T14:45:45.091Z,94192.82
2019-03-04T14:48:15.506Z,94190.83
2019-03-04T14:50:46.161Z,94172.14
2019-03-04T14:53:16.786Z,94194.84
2019-03-04T14:55:47.202Z,94194.84
2019-03-04T14:58:17.735Z,94184.33
2019-03-04T15:00:49.909Z,94190.38
2019-03-04T15:03:23.590Z,94189.08
2019-03-04T15:05:52.823Z,94171.34
2019-03-04T15:08:23.242Z,94182.72
2019-03-04T15:10:53.607Z,94178.77
2019-03-04T15:13:24.343Z,94170.49
2019-03-04T15:16:02.508Z,94168.72
2019-03-04T15:18:26.937Z,94168.72
2019-03-04T15:20:58.873Z,94154.85
2019-03-04T15:23:29.191Z,94160.49
2019-03-04T15:26:01.100Z,94158.00
2019-03-04T15:28:31.841Z,94147.63
2019-03-04T15:31:02.336Z,94138.20
2019-03-04T15:33:32.934Z,94143.12
2019-03-04T15:36:03.669Z,94153.47
2019-03-04T15:38:34.460Z,94145.35
2019-03-04T15:41:04.861Z,94145.35
2019-03-04T15:43:35.630Z,94139.50
2019-03-04T15:46:06.694Z,94146.52
2019-03-04T15:48:36.986Z,94134.27
2019-03-04T15:51:08.611Z,94137.53
2019-03-04T15:53:39.557Z,94139.13
2019-03-04T15:56:09.859Z,94142.36
2019-03-04T15:58:40.461Z,93889.61
2019-03-04T16:01:12.876Z,94134.15
2019-03-04T16:03:43.203Z,94134.25
2019-03-04T16:06:14.129Z,94148.64
2019-03-04T16:08:44.405Z,94148.64
2019-03-04T16:11:15.198Z,94131.98
2019-03-04T16:13:52.997Z,94135.70
2019-03-04T16:16:17.993Z,94141.44
2019-03-04T16:18:48.625Z,94147.25
2019-03-04T16:21:19.169Z,94150.23
2019-03-04T16:23:49.764Z,94150.99
2019-03-04T16:26:20.123Z,94149.70
2019-03-04T16:28:50.814Z,94156.44
2019-03-04T16:31:21.145Z,94155.91
2019-03-04T16:33:51.416Z,94158.66
2019-03-04T16:36:21.920Z,94157.60
2019-03-04T16:38:52.550Z,94161.55
2019-03-04T16:41:23.323Z,94154.99
2019-03-04T16:43:53.627Z,94150.58
2019-03-04T16:46:23.996Z,94149.83
2019-03-04T16:48:54.809Z,94147.77
2019-03-04T16:51:25.092Z,94144.94
2019-03-04T16:53:55.520Z,94144.33
2019-03-04T16:56:26.081Z,94150.41
2019-03-04T16:58:56.554Z,94141.47
2019-03-04T17:01:27.104Z,94148.36
2019-03-04T17:03:57.480Z,94151.33
2019-03-04T17:06:27.915Z,94147.66
2019-03-04T17:08:58.333Z,94149.02
2019-03-04T17:11:28.630Z,94145.39
2019-03-04T17:13:59.051Z,94162.36
2019-03-04T17:16:29.843Z,94147.44
2019-03-04T17:19:00.407Z,94145.91
2019-03-04T17:21:30.921Z,94142.58
2019-03-04T17:24:01.946Z,94143.88
2019-03-04T17:26:33.404Z,94145.72
2019-03-04T17:29:03.850Z,94154.92
2019-03-04T17:31:34.433Z,94152.05
2019-03-04T17:34:05.462Z,94149.95
2019-03-04T17:36:35.822Z,94145.25
2019-03-04T17:39:07.372Z,94161.45
2019-03-04T17:41:38.839Z,94154.39
2019-03-04T17:44:09.624Z,94158.59
2019-03-04T17:46:40.454Z,94154.94
2019-03-04T17:49:10.879Z,94148.66
2019-03-04T17:51:41.330Z,94145.26
2019-03-04T17:54:11.859Z,94168.80
2019-03-04T17:56:42.229Z,94163.55
2019-03-04T17:59:12.760Z,93864.94
2019-03-04T18:01:43.333Z,94169.86
2019-03-04T18:04:13.653Z,94176.41
2019-03-04T18:06:44.015Z,94164.09
2019-03-04T18:09:15.366Z,94172.45
2019-03-04T18:11:45.823Z,94179.78
2019-03-04T18:14:16.497Z,94171.68
2019-03-04T18:16:46.785Z,94173.25
2019-03-04T18:19:17.264Z,94195.22
2019-03-04T18:21:47.819Z,94165.66
2019-03-04T18:24:18.209Z,94173.00
2019-03-04T18:27:05.947Z,94176.38
2019-03-04T18:30:13.777Z,94156.25
2019-03-04T18:33:13.473Z,94185.30
2019-03-04T18:36:20.943Z,93891.33
2019-03-04T18:39:41.874Z,94185.80
2019-03-04T18:42:49.759Z,94196.81
2019-03-04T18:45:48.173Z,94202.31
2019-03-04T18:48:50.888Z,94197.31
2019-03-04T18:51:21.408Z,94193.13
2019-03-04T18:53:52.956Z,94195.47
2019-03-04T18:56:23.546Z,94193.37
2019-03-04T18:58:53.826Z,94189.20
2019-03-04T19:01:24.348Z,94184.75
2019-03-04T19:03:54.676Z,94181.61
2019-03-04T19:06:25.150Z,94185.45
2019-03-04T19:08:56.019Z,94193.08
2019-03-04T19:11:26.735Z,94194.94
2019-03-04T19:13:57.250Z,94190.20
2019-03-04T19:16:28.138Z,94189.16
2019-03-04T19:18:58.789Z,94182.02
2019-03-04T19:21:29.088Z,94182.59
2019-03-04T19:23:59.803Z,94187.45
2019-03-04T19:26:30.155Z,94185.29
2019-03-04T19:29:00.999Z,94185.95
2019-03-04T19:31:31.434Z,94185.13
2019-03-04T19:34:01.814Z,94196.48
2019-03-04T19:36:32.267Z,94180.08
2019-03-04T19:39:04.532Z,94165.98
2019-03-04T19:41:35.896Z,94169.23
2019-03-04T19:44:06.504Z,94166.50
2019-03-04T19:46:37.198Z,94170.16
2019-03-04T19:49:08.800Z,94166.23
2019-03-04T19:51:39.647Z,94163.34
2019-03-04T19:54:10.429Z,94157.60
2019-03-04T19:56:40.726Z,94165.16
2019-03-04T19:59:11.051Z,94161.72
2019-03-04T20:01:42.119Z,94155.45
2019-03-04T20:04:12.776Z,94164.88
2019-03-04T20:06:43.119Z,94161.97
2019-03-04T20:09:14.095Z,94153.06
2019-03-04T20:11:44.895Z,94166.99
2019-03-04T20:14:15.454Z,94171.63
2019-03-04T20:16:45.948Z,94165.44
2019-03-04T20:19:16.981Z,94167.25
2019-03-04T20:21:47.364Z,94162.82
2019-03-04T20:24:18.135Z,94161.55
2019-03-04T20:26:48.576Z,94161.33
2019-03-04T20:29:19.153Z,94157.97
2019-03-04T20:31:49.610Z,94169.19
2019-03-04T20:34:20.222Z,94172.59
2019-03-04T20:36:50.725Z,94172.53
2019-03-04T20:39:21.873Z,94169.89
2019-03-04T20:41:52.384Z,94161.60
2019-03-04T20:44:23.888Z,94162.08
2019-03-04T20:46:54.568Z,94174.34
2019-03-04T20:49:24.980Z,94166.22
2019-03-04T20:51:55.342Z,94162.31
2019-03-04T20:54:26.132Z,94150.49
2019-03-04T20:56:56.517Z,94149.95
2019-03-04T20:59:27.281Z,94148.42
2019-03-04T21:01:57.642Z,94155.55
2019-03-04T21:04:28.066Z,94155.25
2019-03-04T21:06:58.797Z,94142.70
2019-03-04T21:09:29.722Z,94161.28
2019-03-04T21:12:00.174Z,94157.63
2019-03-04T21:14:30.810Z,94144.63
2019-03-04T21:17:01.302Z,94149.38
2019-03-04T21:19:31.706Z,94141.25
2019-03-04T21:22:02.306Z,94145.19
2019-03-04T21:24:33.098Z,94143.64
2019-03-04T21:27:03.456Z,94146.55
2019-03-04T21:30:33.168Z,94146.30
2019-03-04T21:33:15.803Z,94152.27
2019-03-04T21:36:16.928Z,94153.83
2019-03-04T21:38:47.410Z,94157.61
2019-03-04T21:42:00.674Z,94158.28
2019-03-04T21:44:50.309Z,94159.05
2019-03-04T21:47:27.996Z,94164.34
2019-03-04T21:49:58.888Z,94170.80
2019-03-04T21:52:42.199Z,94165.00
2019-03-04T21:55:20.376Z,94173.11
2019-03-04T21:57:54.431Z,94174.38
2019-03-04T22:00:36.160Z,94163.19
2019-03-04T22:03:39.127Z,94177.66
2019-03-04T22:06:10.676Z,94163.52
2019-03-04T22:08:41.315Z,94161.30
2019-03-04T22:11:11.698Z,94156.34
2019-03-04T22:13:42.731Z,94153.55
2019-03-04T22:16:14.562Z,94147.91
2019-03-04T22:18:45.268Z,94152.20
2019-03-04T22:21:17.025Z,94164.39
2019-03-04T22:23:47.949Z,94158.06
2019-03-04T22:26:19.190Z,94163.02
2019-03-04T22:28:49.781Z,94160.75
2019-03-04T22:31:20.148Z,94170.98
2019-03-04T22:33:50.473Z,94170.12
2019-03-04T22:36:20.825Z,94188.98
2019-03-04T22:38:51.470Z,94179.20
2019-03-04T22:41:22.219Z,94191.99
2019-03-04T22:43:53.171Z,94175.63
2019-03-04T22:46:23.489Z,94194.90
2019-03-04T22:48:54.044Z,94192.02
2019-03-04T22:51:24.667Z,94210.75
2019-03-04T22:53:55.134Z,94208.83
2019-03-04T22:56:25.495Z,94199.87
2019-03-04T22:58:56.074Z,94197.38
2019-03-04T23:01:40.502Z,94198.53
2019-03-04T23:04:25.393Z,94199.17
2019-03-04T23:07:10.628Z,94192.59
2019-03-04T23:10:00.134Z,94188.95
2019-03-04T23:12:48.266Z,94197.91
2019-03-04T23:15:22.324Z,94186.67
2019-03-04T23:17:52.374Z,94187.05
2019-03-04T23:20:23.317Z,94188.95
2019-03-04T23:22:53.615Z,94191.95
2019-03-04T23:25:24.134Z,94199.44
2019-03-04T23:27:54.930Z,94189.16
2019-03-04T23:30:25.301Z,94202.50
2019-03-04T23:32:55.585Z,94198.81
2019-03-04T23:35:26.384Z,94196.91
2019-03-04T23:37:57.109Z,94203.27
2019-03-04T23:40:27.741Z,94203.05
2019-03-04T23:42:58.392Z,94206.11
2019-03-04T23:45:28.722Z,94203.20
2019-03-04T23:47:59.350Z,94202.73
2019-03-04T23:50:29.901Z,94220.95
2019-03-04T23:53:00.183Z,94216.09
2019-03-04T23:55:30.984Z,94213.30
2019-03-04T23:58:01.655Z,94224.63
